Time,TemperatureF,DewpointF,PressureIn,WindDirection,WindDirectionDegrees,WindSpeedMPH,WindSpeedGustMPH,Humidity,HourlyPrecipIn,Conditions,Clouds,dailyrainin,SoftwareType,DateUTC
2013-02-22 00:01:00,35.1,28.6,30.22,SE,128,10.0,14.0,77,0.00,,---,0.00,VWS V14.00,2013-02-22 00:01:00,
2013-02-22 00:06:00,35.2,29.0,30.22,SSE,154,13.0,14.0,78,0.00,,---,0.00,VWS V14.00,2013-02-22 00:06:00,
2013-02-22 00:11:00,35.2,28.7,30.21,SE,128,12.0,14.0,77,0.00,,---,0.00,VWS V14.00,2013-02-22 00:11:00,
2013-02-22 00:16:00,35.2,29.0,30.22,SE,133,9.0,16.0,78,0.00,,---,0.00,VWS V14.00,2013-02-22 00:16:00,
2013-02-22 00:21:00,35.1,28.0,30.21,SE,146,17.0,17.0,75,0.00,,---,0.00,VWS V14.00,2013-02-22 00:21:00,
2013-02-22 00:26:00,35.0,27.9,30.21,SE,124,12.0,12.0,75,0.00,,---,0.00,VWS V14.00,2013-02-22 00:26:00,
2013-02-22 00:31:00,35.1,28.6,30.21,East,98,8.0,15.0,77,0.00,,---,0.00,VWS V14.00,2013-02-22 00:31:00,
2013-02-22 00:36:00,35.1,28.6,30.21,SE,134,12.0,13.0,77,0.00,,---,0.00,VWS V14.00,2013-02-22 00:36:00,
2013-02-22 00:41:00,35.1,28.3,30.21,SSE,161,15.0,15.0,76,0.00,,---,0.00,VWS V14.00,2013-02-22 00:41:00,
2013-02-22 00:46:00,35.0,28.2,30.21,SE,131,13.0,13.0,76,0.00,,---,0.00,VWS V14.00,2013-02-22 00:46:00,
2013-02-22 00:51:00,35.0,28.2,30.21,SE,144,10.0,13.0,76,0.00,,---,0.00,VWS V14.00,2013-02-22 00:51:00,
2013-02-22 00:56:00,35.0,28.2,30.21,ESE,121,10.0,15.0,76,0.00,,---,0.00,VWS V14.00,2013-02-22 00:56:00,
2013-02-22 01:01:00,35.0,28.5,30.21,East,96,9.0,13.0,77,0.00,,---,0.00,VWS V14.00,2013-02-22 01:01:00,
2013-02-22 01:07:00,35.0,28.5,30.22,SE,126,11.0,13.0,77,0.00,,---,0.00,VWS V14.00,2013-02-22 01:07:00,
2013-02-22 01:12:00,35.0,28.2,30.22,SE,142,12.0,13.0,76,0.00,,---,0.00,VWS V14.00,2013-02-22 01:12:00,
2013-02-22 01:17:00,34.9,28.1,30.22,SE,128,10.0,11.0,76,0.00,,---,0.00,VWS V14.00,2013-02-22 01:17:00,
2013-02-22 01:23:00,34.8,28.0,30.22,SSE,149,5.0,11.0,76,0.00,,---,0.00,VWS V14.00,2013-02-22 01:23:00,
2013-02-22 01:28:00,34.8,28.3,30.22,ESE,112,10.0,13.0,77,0.00,,---,0.00,VWS V14.00,2013-02-22 01:28:00,
2013-02-22 01:33:00,34.8,28.0,30.22,ESE,123,6.0,10.0,76,0.00,,---,0.00,VWS V14.00,2013-02-22 01:33:00,
2013-02-22 01:38:00,34.6,28.1,30.22,SSE,165,13.0,16.0,77,0.00,,---,0.00,VWS V14.00,2013-02-22 01:38:00,
2013-02-22 01:43:00,34.6,28.5,30.22,South,171,14.0,14.0,78,0.00,,---,0.00,VWS V14.00,2013-02-22 01:43:00,
2013-02-22 01:48:00,34.5,28.4,30.22,SE,137,7.0,14.0,78,0.00,,---,0.00,VWS V14.00,2013-02-22 01:48:00,
2013-02-22 01:53:00,34.4,28.3,30.21,SE,131,9.0,9.0,78,0.00,,---,0.00,VWS V14.00,2013-02-22 01:53:00,
2013-02-22 01:58:00,34.3,27.9,30.22,SE,142,8.0,13.0,77,0.00,,---,0.00,VWS V14.00,2013-02-22 01:58:00,
2013-02-22 02:04:00,34.4,28.0,30.22,SSE,149,9.0,9.0,77,0.00,,---,0.00,VWS V14.00,2013-02-22 02:04:00,
2013-02-22 02:09:00,34.3,28.2,30.22,SE,140,5.0,12.0,78,0.00,,---,0.00,VWS V14.00,2013-02-22 02:09:00,
2013-02-22 02:14:00,34.3,28.2,30.21,ESE,102,8.0,12.0,78,0.00,,---,0.00,VWS V14.00,2013-02-22 02:14:00,
2013-02-22 02:19:00,34.3,28.2,30.21,SE,137,9.0,13.0,78,0.00,,---,0.00,VWS V14.00,2013-02-22 02:19:00,
2013-02-22 02:24:00,34.3,27.9,30.21,SE,141,12.0,15.0,77,0.00,,---,0.00,VWS V14.00,2013-02-22 02:24:00,
2013-02-22 02:29:00,34.3,28.2,30.21,SE,140,8.0,11.0,78,0.00,,---,0.00,VWS V14.00,2013-02-22 02:29:00,
2013-02-22 02:34:00,34.3,28.2,30.21,SE,136,8.0,16.0,78,0.00,,---,0.00,VWS V14.00,2013-02-22 02:34:00,
2013-02-22 02:39:00,34.2,27.8,30.21,SSE,155,7.0,10.0,77,0.00,,---,0.00,VWS V14.00,2013-02-22 02:39:00,
2013-02-22 02:44:00,34.2,27.8,30.21,SSE,163,9.0,16.0,77,0.00,,---,0.00,VWS V14.00,2013-02-22 02:44:00,
2013-02-22 02:49:00,34.2,27.8,30.21,SE,134,13.0,15.0,77,0.00,,---,0.00,VWS V14.00,2013-02-22 02:49:00,
2013-02-22 02:54:00,34.2,27.4,30.21,SE,134,6.0,10.0,76,0.00,,---,0.00,VWS V14.00,2013-02-22 02:54:00,
2013-02-22 02:59:00,34.2,27.8,30.21,SE,125,11.0,18.0,77,0.00,,---,0.00,VWS V14.00,2013-02-22 02:59:00,
2013-02-22 03:04:00,34.2,27.8,30.21,SE,137,10.0,17.0,77,0.00,,---,0.00,VWS V14.00,2013-02-22 03:04:00,
2013-02-22 03:09:00,34.1,27.3,30.21,ESE,123,7.0,11.0,76,0.00,,---,0.00,VWS V14.00,2013-02-22 03:09:00,
2013-02-22 03:14:00,34.1,27.7,30.21,SE,138,13.0,15.0,77,0.00,,---,0.00,VWS V14.00,2013-02-22 03:14:00,
2013-02-22 03:19:00,34.1,27.3,30.21,SE,135,13.0,13.0,76,0.00,,---,0.00,VWS V14.00,2013-02-22 03:19:00,
2013-02-22 03:24:00,34.1,27.3,30.21,SSE,162,11.0,14.0,76,0.00,,---,0.00,VWS V14.00,2013-02-22 03:24:00,
2013-02-22 03:29:00,34.0,27.6,30.21,SSE,157,9.0,15.0,77,0.00,,---,0.00,VWS V14.00,2013-02-22 03:29:00,
2013-02-22 03:34:00,34.0,27.2,30.21,SE,132,8.0,9.0,76,0.00,,---,0.00,VWS V14.00,2013-02-22 03:34:00,
2013-02-22 03:39:00,34.0,27.6,30.21,ESE,112,5.0,7.0,77,0.00,,---,0.00,VWS V14.00,2013-02-22 03:39:00,
2013-02-22 03:44:00,34.0,27.2,30.21,ESE,114,11.0,11.0,76,0.00,,---,0.00,VWS V14.00,2013-02-22 03:44:00,
2013-02-22 03:49:00,34.0,27.6,30.21,ESE,119,5.0,10.0,77,0.00,,---,0.00,VWS V14.00,2013-02-22 03:49:00,
2013-02-22 03:54:00,34.0,27.6,30.21,SE,128,8.0,11.0,77,0.00,,---,0.00,VWS V14.00,2013-02-22 03:54:00,
2013-02-22 03:59:00,34.0,27.6,30.21,ESE,123,7.0,9.0,77,0.00,,---,0.00,VWS V14.00,2013-02-22 03:59:00,
2013-02-22 04:04:00,34.0,27.6,30.21,SE,125,9.0,9.0,77,0.00,,---,0.00,VWS V14.00,2013-02-22 04:04:00,
2013-02-22 04:09:00,33.9,27.5,30.21,SSE,163,11.0,11.0,77,0.00,,---,0.00,VWS V14.00,2013-02-22 04:09:00,
2013-02-22 04:14:00,33.9,27.5,30.21,SE,146,4.0,6.0,77,0.00,,---,0.00,VWS V14.00,2013-02-22 04:14:00,
2013-02-22 04:19:00,33.9,27.5,30.21,ESE,111,7.0,9.0,77,0.00,,---,0.00,VWS V14.00,2013-02-22 04:19:00,
2013-02-22 04:24:00,33.9,27.5,30.21,SE,130,10.0,13.0,77,0.00,,---,0.00,VWS V14.00,2013-02-22 04:24:00,
2013-02-22 04:29:00,33.8,27.0,30.21,SE,138,7.0,11.0,76,0.00,,---,0.00,VWS V14.00,2013-02-22 04:29:00,
2013-02-22 04:34:00,33.8,27.4,30.22,ESE,112,7.0,11.0,77,0.00,,---,0.00,VWS V14.00,2013-02-22 04:34:00,
2013-02-22 04:39:00,33.8,27.4,30.21,ESE,115,12.0,14.0,77,0.00,,---,0.00,VWS V14.00,2013-02-22 04:39:00,
2013-02-22 04:44:00,33.8,27.7,30.21,SE,136,12.0,15.0,78,0.00,,---,0.00,VWS V14.00,2013-02-22 04:44:00,
2013-02-22 04:49:00,33.7,27.3,30.21,SE,132,6.0,11.0,77,0.00,,---,0.00,VWS V14.00,2013-02-22 04:49:00,
2013-02-22 04:54:00,33.7,27.3,30.21,SE,129,9.0,9.0,77,0.00,,---,0.00,VWS V14.00,2013-02-22 04:54:00,
2013-02-22 04:59:00,33.7,27.3,30.21,SE,137,6.0,10.0,77,0.00,,---,0.00,VWS V14.00,2013-02-22 04:59:00,
2013-02-22 05:00:00,33.7,27.3,30.21,SE,129,12.0,14.0,77,0.00,,---,0.00,VWS V14.00,2013-02-22 05:00:00,
2013-02-22 05:01:00,33.7,27.6,30.21,SE,137,7.0,7.0,78,0.00,,---,0.00,VWS V14.00,2013-02-22 05:01:00,
2013-02-22 05:02:00,33.7,27.6,30.21,ESE,123,4.0,12.0,78,0.00,,---,0.00,VWS V14.00,2013-02-22 05:02:00,
2013-02-22 05:07:00,33.8,28.0,30.22,SE,124,10.0,12.0,79,0.00,,---,0.00,VWS V14.00,2013-02-22 05:07:00,
2013-02-22 05:12:00,33.7,27.9,30.21,SE,126,12.0,12.0,79,0.00,,---,0.00,VWS V14.00,2013-02-22 05:12:00,
2013-02-22 05:16:00,33.7,27.9,30.22,SE,146,10.0,13.0,79,0.00,,---,0.00,VWS V14.00,2013-02-22 05:16:00,
2013-02-22 05:21:00,33.6,27.8,30.22,SE,137,6.0,13.0,79,0.00,,---,0.00,VWS V14.00,2013-02-22 05:21:00,
2013-02-22 05:26:00,33.5,27.4,30.22,SE,128,6.0,9.0,78,0.00,,---,0.00,VWS V14.00,2013-02-22 05:26:00,
2013-02-22 05:31:00,33.5,27.4,30.22,ESE,123,6.0,11.0,78,0.00,,---,0.00,VWS V14.00,2013-02-22 05:31:00,
2013-02-22 05:36:00,33.4,27.3,30.23,ESE,103,13.0,15.0,78,0.00,,---,0.00,VWS V14.00,2013-02-22 05:36:00,
2013-02-22 05:41:00,33.4,27.3,30.23,ESE,119,13.0,15.0,78,0.00,,---,0.00,VWS V14.00,2013-02-22 05:41:00,
2013-02-22 05:46:00,33.3,26.9,30.23,SE,132,13.0,14.0,77,0.00,,---,0.00,VWS V14.00,2013-02-22 05:46:00,
2013-02-22 05:51:00,33.2,27.1,30.23,ESE,105,10.0,13.0,78,0.00,,---,0.00,VWS V14.00,2013-02-22 05:51:00,
2013-02-22 05:56:00,33.2,27.1,30.23,SE,134,3.0,10.0,78,0.00,,---,0.00,VWS V14.00,2013-02-22 05:56:00,
2013-02-22 06:01:00,33.2,27.1,30.23,SE,128,9.0,13.0,78,0.00,,---,0.00,VWS V14.00,2013-02-22 06:01:00,
2013-02-22 06:06:00,33.1,27.0,30.23,SSE,152,10.0,12.0,78,0.00,,---,0.00,VWS V14.00,2013-02-22 06:06:00,
2013-02-22 06:11:00,33.1,26.7,30.23,SE,138,5.0,7.0,77,0.00,,---,0.00,VWS V14.00,2013-02-22 06:11:00,
2013-02-22 06:16:00,33.2,26.8,30.23,ESE,122,5.0,9.0,77,0.00,,---,0.00,VWS V14.00,2013-02-22 06:16:00,
2013-02-22 06:21:00,33.1,27.0,30.23,ESE,106,6.0,12.0,78,0.00,,---,0.00,VWS V14.00,2013-02-22 06:21:00,
2013-02-22 06:26:00,33.0,26.3,30.23,ESE,122,9.0,12.0,76,0.00,,---,0.00,VWS V14.00,2013-02-22 06:26:00,
2013-02-22 06:31:00,33.0,26.3,30.24,SE,144,6.0,11.0,76,0.00,,---,0.00,VWS V14.00,2013-02-22 06:31:00,
2013-02-22 06:36:00,33.1,26.7,30.24,SE,142,6.0,9.0,77,0.00,,---,0.00,VWS V14.00,2013-02-22 06:36:00,
2013-02-22 06:41:00,33.1,27.0,30.24,SE,146,6.0,14.0,78,0.00,,---,0.00,VWS V14.00,2013-02-22 06:41:00,
2013-02-22 06:46:00,33.0,26.3,30.24,SE,136,3.0,4.0,76,0.00,,---,0.00,VWS V14.00,2013-02-22 06:46:00,
2013-02-22 06:51:00,33.0,26.6,30.24,SE,133,10.0,11.0,77,0.00,,---,0.00,VWS V14.00,2013-02-22 06:51:00,
2013-02-22 06:56:00,32.9,26.2,30.24,South,172,6.0,11.0,76,0.00,,---,0.00,VWS V14.00,2013-02-22 06:56:00,
2013-02-22 07:01:00,32.9,25.9,30.25,SE,130,5.0,10.0,75,0.00,,---,0.00,VWS V14.00,2013-02-22 07:01:00,
2013-02-22 07:06:00,32.9,25.9,30.25,ESE,105,9.0,10.0,75,0.00,,---,0.00,VWS V14.00,2013-02-22 07:06:00,
2013-02-22 07:11:00,32.9,26.2,30.24,SE,130,6.0,12.0,76,0.00,,---,0.00,VWS V14.00,2013-02-22 07:11:00,
2013-02-22 07:16:00,33.0,26.3,30.25,SE,130,10.0,11.0,76,0.00,,---,0.00,VWS V14.00,2013-02-22 07:16:00,
2013-02-22 07:21:00,33.0,26.3,30.25,ESE,109,6.0,9.0,76,0.00,,---,0.00,VWS V14.00,2013-02-22 07:21:00,
2013-02-22 07:26:00,33.0,26.3,30.25,ESE,110,6.0,9.0,76,0.00,,---,0.00,VWS V14.00,2013-02-22 07:26:00,
2013-02-22 07:31:00,33.0,26.6,30.25,SE,134,6.0,11.0,77,0.00,,---,0.00,VWS V14.00,2013-02-22 07:31:00,
2013-02-22 07:36:00,33.0,26.6,30.25,SE,141,11.0,11.0,77,0.00,,---,0.00,VWS V14.00,2013-02-22 07:36:00,
2013-02-22 07:41:00,33.0,26.3,30.25,SSE,154,9.0,9.0,76,0.00,,---,0.00,VWS V14.00,2013-02-22 07:41:00,
2013-02-22 07:46:00,33.0,26.3,30.25,ESE,119,7.0,7.0,76,0.00,,---,0.00,VWS V14.00,2013-02-22 07:46:00,
2013-02-22 07:51:00,32.9,26.2,30.25,SE,146,6.0,9.0,76,0.00,,---,0.00,VWS V14.00,2013-02-22 07:51:00,
2013-02-22 07:56:00,33.0,26.3,30.26,SE,142,4.0,10.0,76,0.00,,---,0.00,VWS V14.00,2013-02-22 07:56:00,
2013-02-22 08:01:00,33.0,26.3,30.26,ESE,108,4.0,7.0,76,0.00,,---,0.00,VWS V14.00,2013-02-22 08:01:00,
2013-02-22 08:06:00,33.0,26.0,30.26,SE,136,7.0,12.0,75,0.00,,---,0.00,VWS V14.00,2013-02-22 08:06:00,
2013-02-22 08:11:00,33.0,25.6,30.26,ESE,119,4.0,12.0,74,0.00,,---,0.00,VWS V14.00,2013-02-22 08:11:00,
2013-02-22 08:21:00,33.0,26.0,30.26,SSE,148,6.0,6.0,75,0.00,,---,0.00,VWS V14.00,2013-02-22 08:21:00,
2013-02-22 08:26:00,33.0,26.0,30.26,ESE,119,12.0,14.0,75,0.00,,---,0.00,VWS V14.00,2013-02-22 08:26:00,
2013-02-22 08:31:00,33.1,26.0,30.26,SE,134,12.0,13.0,75,0.00,,---,0.00,VWS V14.00,2013-02-22 08:31:00,
2013-02-22 08:36:00,33.1,25.4,30.26,SSE,153,9.0,12.0,73,0.00,,---,0.00,VWS V14.00,2013-02-22 08:36:00,
2013-02-22 08:41:00,33.1,25.7,30.26,SE,144,11.0,15.0,74,0.00,,---,0.00,VWS V14.00,2013-02-22 08:41:00,
2013-02-22 08:46:00,33.2,25.8,30.26,SE,145,5.0,10.0,74,0.00,,---,0.00,VWS V14.00,2013-02-22 08:46:00,
2013-02-22 08:51:00,33.3,25.9,30.26,ESE,123,12.0,15.0,74,0.00,,---,0.00,VWS V14.00,2013-02-22 08:51:00,
2013-02-22 08:56:00,33.3,26.2,30.26,SE,125,7.0,11.0,75,0.00,,---,0.00,VWS V14.00,2013-02-22 08:56:00,
2013-02-22 09:01:00,33.4,26.3,30.26,SE,132,9.0,15.0,75,0.00,,---,0.00,VWS V14.00,2013-02-22 09:01:00,
2013-02-22 09:06:00,33.4,26.0,30.26,SE,127,10.0,16.0,74,0.00,,---,0.00,VWS V14.00,2013-02-22 09:06:00,
2013-02-22 09:11:00,33.5,26.4,30.26,SE,128,10.0,16.0,75,0.00,,---,0.00,VWS V14.00,2013-02-22 09:11:00,
2013-02-22 09:16:00,33.5,26.4,30.26,ESE,120,11.0,12.0,75,0.00,,---,0.00,VWS V14.00,2013-02-22 09:16:00,
2013-02-22 09:21:00,33.5,26.1,30.26,ESE,114,9.0,13.0,74,0.00,,---,0.00,VWS V14.00,2013-02-22 09:21:00,
2013-02-22 09:26:00,33.5,26.1,30.26,SE,140,18.0,18.0,74,0.00,,---,0.00,VWS V14.00,2013-02-22 09:26:00,
2013-02-22 09:31:00,33.5,26.1,30.27,SE,130,15.0,17.0,74,0.00,,---,0.00,VWS V14.00,2013-02-22 09:31:00,
2013-02-22 09:36:00,33.5,26.1,30.27,SE,127,6.0,12.0,74,0.00,,---,0.00,VWS V14.00,2013-02-22 09:36:00,
2013-02-22 09:41:00,33.6,26.2,30.27,ESE,122,13.0,16.0,74,0.00,,---,0.00,VWS V14.00,2013-02-22 09:41:00,
2013-02-22 09:46:00,33.6,26.2,30.27,SE,135,11.0,12.0,74,0.00,,---,0.00,VWS V14.00,2013-02-22 09:46:00,
2013-02-22 09:51:00,33.7,26.3,30.27,ESE,115,13.0,14.0,74,0.00,,---,0.00,VWS V14.00,2013-02-22 09:51:00,
2013-02-22 09:57:00,33.6,25.9,30.27,SSE,147,15.0,15.0,73,0.00,,---,0.00,VWS V14.00,2013-02-22 09:57:00,
2013-02-22 10:02:00,33.6,25.9,30.27,SSE,161,9.0,13.0,73,0.00,,---,0.00,VWS V14.00,2013-02-22 10:02:00,
2013-02-22 10:07:00,33.7,26.3,30.27,SE,124,14.0,14.0,74,0.00,,---,0.00,VWS V14.00,2013-02-22 10:07:00,
2013-02-22 10:12:00,33.7,26.6,30.27,SE,141,11.0,17.0,75,0.00,,---,0.00,VWS V14.00,2013-02-22 10:12:00,
2013-02-22 10:17:00,33.7,26.6,30.27,SE,136,13.0,13.0,75,0.00,,---,0.00,VWS V14.00,2013-02-22 10:17:00,
2013-02-22 10:22:00,33.8,27.0,30.27,SSE,163,5.0,7.0,76,0.00,,---,0.00,VWS V14.00,2013-02-22 10:22:00,
2013-02-22 10:27:00,33.9,27.5,30.27,ESE,119,10.0,12.0,77,0.00,,---,0.00,VWS V14.00,2013-02-22 10:27:00,
2013-02-22 10:32:00,34.0,27.2,30.27,SE,128,5.0,7.0,76,0.00,,---,0.00,VWS V14.00,2013-02-22 10:32:00,
2013-02-22 10:37:00,34.1,27.3,30.27,ESE,116,11.0,12.0,76,0.00,,---,0.00,VWS V14.00,2013-02-22 10:37:00,
2013-02-22 10:42:00,34.1,27.0,30.27,ESE,115,13.0,13.0,75,0.00,,---,0.00,VWS V14.00,2013-02-22 10:42:00,
2013-02-22 10:47:00,34.1,26.7,30.27,East,100,13.0,14.0,74,0.00,,---,0.00,VWS V14.00,2013-02-22 10:47:00,
2013-02-22 10:52:00,34.1,26.7,30.27,East,93,10.0,11.0,74,0.00,,---,0.00,VWS V14.00,2013-02-22 10:52:00,
2013-02-22 10:57:00,34.1,26.7,30.27,ESE,103,10.0,10.0,74,0.00,,---,0.00,VWS V14.00,2013-02-22 10:57:00,
2013-02-22 11:02:00,34.2,26.8,30.27,East,100,9.0,12.0,74,0.00,,---,0.00,VWS V14.00,2013-02-22 11:02:00,
2013-02-22 11:07:00,34.2,26.5,30.28,East,91,9.0,10.0,73,0.00,,---,0.00,VWS V14.00,2013-02-22 11:07:00,
2013-02-22 11:12:00,34.3,26.6,30.28,SE,134,6.0,7.0,73,0.00,,---,0.00,VWS V14.00,2013-02-22 11:12:00,
2013-02-22 11:17:00,34.3,26.2,30.28,SE,136,3.0,4.0,72,0.00,,---,0.00,VWS V14.00,2013-02-22 11:17:00,
2013-02-22 11:22:00,34.4,27.0,30.27,SE,126,9.0,11.0,74,0.00,,---,0.00,VWS V14.00,2013-02-22 11:22:00,
2013-02-22 11:27:00,34.4,26.3,30.28,SE,140,9.0,9.0,72,0.00,,---,0.00,VWS V14.00,2013-02-22 11:27:00,
2013-02-22 11:32:00,34.4,26.7,30.27,ESE,104,12.0,12.0,73,0.00,,---,0.00,VWS V14.00,2013-02-22 11:32:00,
2013-02-22 11:37:00,34.4,26.7,30.27,ESE,115,10.0,10.0,73,0.00,,---,0.00,VWS V14.00,2013-02-22 11:37:00,
2013-02-22 11:42:00,34.4,26.7,30.27,SE,132,4.0,6.0,73,0.00,,---,0.00,VWS V14.00,2013-02-22 11:42:00,
2013-02-22 11:47:00,34.5,26.4,30.27,SE,138,5.0,8.0,72,0.00,,---,0.00,VWS V14.00,2013-02-22 11:47:00,
2013-02-22 11:52:00,34.4,26.3,30.27,SE,138,6.0,11.0,72,0.00,,---,0.00,VWS V14.00,2013-02-22 11:52:00,
2013-02-22 11:57:00,34.5,26.4,30.27,ESE,116,3.0,6.0,72,0.00,,---,0.00,VWS V14.00,2013-02-22 11:57:00,
2013-02-22 12:02:00,34.7,26.6,30.27,ESE,110,6.0,7.0,72,0.00,,---,0.00,VWS V14.00,2013-02-22 12:02:00,
2013-02-22 12:08:00,34.7,27.0,30.27,ESE,123,4.0,8.0,73,0.00,,---,0.00,VWS V14.00,2013-02-22 12:08:00,
2013-02-22 12:13:00,34.6,26.9,30.27,SE,128,5.0,6.0,73,0.00,,---,0.00,VWS V14.00,2013-02-22 12:13:00,
2013-02-22 12:18:00,34.6,27.2,30.27,ESE,115,4.0,9.0,74,0.00,,---,0.00,VWS V14.00,2013-02-22 12:18:00,
2013-02-22 12:23:00,34.7,27.0,30.27,SE,132,5.0,6.0,73,0.00,,---,0.00,VWS V14.00,2013-02-22 12:23:00,
2013-02-22 12:28:00,34.6,26.9,30.27,SE,128,9.0,9.0,73,0.00,,---,0.00,VWS V14.00,2013-02-22 12:28:00,
2013-02-22 12:33:00,34.7,27.6,30.27,ESE,103,9.0,10.0,75,0.00,,---,0.00,VWS V14.00,2013-02-22 12:33:00,
2013-02-22 12:38:00,34.6,27.5,30.27,ESE,107,6.0,7.0,75,0.00,,---,0.00,VWS V14.00,2013-02-22 12:38:00,
2013-02-22 12:43:00,34.6,27.2,30.27,ESE,117,8.0,8.0,74,0.00,,---,0.00,VWS V14.00,2013-02-22 12:43:00,
2013-02-22 12:48:00,34.7,27.9,30.27,SE,129,6.0,11.0,76,0.00,,---,0.00,VWS V14.00,2013-02-22 12:48:00,
2013-02-22 12:53:00,34.7,27.6,30.27,SE,128,10.0,11.0,75,0.00,,---,0.00,VWS V14.00,2013-02-22 12:53:00,
2013-02-22 12:58:00,34.7,27.6,30.27,ESE,103,6.0,8.0,75,0.00,,---,0.00,VWS V14.00,2013-02-22 12:58:00,
2013-02-22 13:03:00,34.6,27.5,30.27,ESE,114,5.0,5.0,75,0.00,,---,0.00,VWS V14.00,2013-02-22 13:03:00,
2013-02-22 13:08:00,34.7,28.2,30.27,ESE,113,6.0,9.0,77,0.00,,---,0.00,VWS V14.00,2013-02-22 13:08:00,
2013-02-22 13:13:00,34.7,28.2,30.27,ESE,115,9.0,9.0,77,0.00,,---,0.00,VWS V14.00,2013-02-22 13:13:00,
2013-02-22 13:18:00,34.7,27.9,30.27,ESE,104,9.0,9.0,76,0.00,,---,0.00,VWS V14.00,2013-02-22 13:18:00,
2013-02-22 13:23:00,34.7,27.9,30.27,SE,132,11.0,11.0,76,0.00,,---,0.00,VWS V14.00,2013-02-22 13:23:00,
2013-02-22 13:29:00,34.8,28.3,30.27,SE,129,9.0,9.0,77,0.00,,---,0.00,VWS V14.00,2013-02-22 13:29:00,
2013-02-22 13:34:00,34.8,28.0,30.27,ESE,118,12.0,14.0,76,0.00,,---,0.00,VWS V14.00,2013-02-22 13:34:00,
2013-02-22 13:39:00,34.7,27.9,30.27,ESE,122,10.0,11.0,76,0.00,,---,0.00,VWS V14.00,2013-02-22 13:39:00,
2013-02-22 13:44:00,34.7,27.6,30.27,ESE,110,14.0,14.0,75,0.00,,---,0.00,VWS V14.00,2013-02-22 13:44:00,
2013-02-22 13:49:00,34.8,27.7,30.27,East,89,10.0,13.0,75,0.00,,---,0.00,VWS V14.00,2013-02-22 13:49:00,
2013-02-22 13:55:00,34.7,27.6,30.27,East,97,3.0,7.0,75,0.00,,---,0.00,VWS V14.00,2013-02-22 13:55:00,
2013-02-22 14:00:00,34.6,27.8,30.27,ESE,103,10.0,14.0,76,0.00,,---,0.00,VWS V14.00,2013-02-22 14:00:00,
2013-02-22 14:05:00,34.6,27.5,30.27,East,99,6.0,10.0,75,0.00,,---,0.00,VWS V14.00,2013-02-22 14:05:00,
2013-02-22 14:10:00,34.6,27.5,30.27,East,86,11.0,11.0,75,0.00,,---,0.00,VWS V14.00,2013-02-22 14:10:00,
2013-02-22 14:15:00,34.6,27.5,30.26,ESE,117,10.0,12.0,75,0.00,,---,0.00,VWS V14.00,2013-02-22 14:15:00,
2013-02-22 14:20:00,34.7,27.6,30.27,East,98,8.0,13.0,75,0.00,,---,0.00,VWS V14.00,2013-02-22 14:20:00,
2013-02-22 14:25:00,34.6,27.5,30.26,ESE,120,7.0,8.0,75,0.00,,---,0.00,VWS V14.00,2013-02-22 14:25:00,
2013-02-22 14:30:00,34.6,27.8,30.26,East,94,10.0,11.0,76,0.00,,---,0.00,VWS V14.00,2013-02-22 14:30:00,
2013-02-22 14:35:00,34.6,27.5,30.26,ENE,74,9.0,13.0,75,0.00,,---,0.00,VWS V14.00,2013-02-22 14:35:00,
2013-02-22 14:40:00,34.6,27.2,30.26,ESE,105,11.0,11.0,74,0.00,,---,0.00,VWS V14.00,2013-02-22 14:40:00,
2013-02-22 14:45:00,34.6,26.9,30.26,East,98,3.0,5.0,73,0.00,,---,0.00,VWS V14.00,2013-02-22 14:45:00,
2013-02-22 14:50:00,34.7,27.0,30.26,East,96,6.0,9.0,73,0.00,,---,0.00,VWS V14.00,2013-02-22 14:50:00,
2013-02-22 14:55:00,34.7,26.6,30.26,East,88,13.0,13.0,72,0.00,,---,0.00,VWS V14.00,2013-02-22 14:55:00,
2013-02-22 15:00:00,34.7,26.6,30.26,East,80,6.0,9.0,72,0.00,,---,0.00,VWS V14.00,2013-02-22 15:00:00,
2013-02-22 15:05:00,34.7,26.6,30.26,ESE,121,5.0,6.0,72,0.00,,---,0.00,VWS V14.00,2013-02-22 15:05:00,
2013-02-22 15:10:00,34.7,27.0,30.26,East,91,5.0,7.0,73,0.00,,---,0.00,VWS V14.00,2013-02-22 15:10:00,
2013-02-22 15:15:00,34.8,27.4,30.26,ESE,123,5.0,7.0,74,0.00,,---,0.00,VWS V14.00,2013-02-22 15:15:00,
2013-02-22 15:20:00,34.8,27.4,30.26,ESE,122,5.0,5.0,74,0.00,,---,0.00,VWS V14.00,2013-02-22 15:20:00,
2013-02-22 15:25:00,34.8,27.4,30.26,East,93,9.0,9.0,74,0.00,,---,0.00,VWS V14.00,2013-02-22 15:25:00,
2013-02-22 15:30:00,34.8,27.4,30.26,ESE,105,9.0,9.0,74,0.00,,---,0.00,VWS V14.00,2013-02-22 15:30:00,
2013-02-22 15:35:00,34.9,27.8,30.26,ESE,103,5.0,7.0,75,0.00,,---,0.00,VWS V14.00,2013-02-22 15:35:00,
2013-02-22 15:40:00,34.8,27.4,30.26,East,95,5.0,5.0,74,0.00,,---,0.00,VWS V14.00,2013-02-22 15:40:00,
2013-02-22 15:45:00,34.9,28.1,30.26,East,92,5.0,5.0,76,0.00,,---,0.00,VWS V14.00,2013-02-22 15:45:00,
2013-02-22 15:50:00,35.0,28.2,30.26,ESE,110,6.0,6.0,76,0.00,,---,0.00,VWS V14.00,2013-02-22 15:50:00,
2013-02-22 15:55:00,35.0,27.9,30.26,ESE,118,3.0,4.0,75,0.00,,---,0.00,VWS V14.00,2013-02-22 15:55:00,
2013-02-22 16:00:00,35.0,28.2,30.26,ESE,110,2.0,4.0,76,0.00,,---,0.00,VWS V14.00,2013-02-22 16:00:00,
2013-02-22 16:05:00,35.0,28.2,30.26,ENE,78,3.0,5.0,76,0.00,,---,0.00,VWS V14.00,2013-02-22 16:05:00,
2013-02-22 16:10:00,35.2,28.4,30.26,ESE,121,6.0,8.0,76,0.00,,---,0.00,VWS V14.00,2013-02-22 16:10:00,
2013-02-22 16:15:00,35.3,28.5,30.26,ESE,120,2.0,6.0,76,0.00,,---,0.00,VWS V14.00,2013-02-22 16:15:00,
2013-02-22 16:20:00,35.3,28.5,30.26,SE,139,4.0,7.0,76,0.00,,---,0.00,VWS V14.00,2013-02-22 16:20:00,
2013-02-22 16:25:00,35.2,28.4,30.26,ESE,118,7.0,7.0,76,0.00,,---,0.00,VWS V14.00,2013-02-22 16:25:00,
2013-02-22 16:31:00,35.3,28.2,30.26,East,97,7.0,7.0,75,0.00,,---,0.00,VWS V14.00,2013-02-22 16:31:00,
2013-02-22 16:36:00,35.4,28.3,30.26,ESE,121,5.0,7.0,75,0.00,,---,0.00,VWS V14.00,2013-02-22 16:36:00,
2013-02-22 16:41:00,35.5,28.4,30.26,East,91,9.0,10.0,75,0.00,,---,0.00,VWS V14.00,2013-02-22 16:41:00,
2013-02-22 16:46:00,35.5,28.7,30.27,ESE,111,13.0,14.0,76,0.00,,---,0.00,VWS V14.00,2013-02-22 16:46:00,
2013-02-22 16:51:00,35.7,29.2,30.27,East,90,11.0,11.0,77,0.00,,---,0.00,VWS V14.00,2013-02-22 16:51:00,
2013-02-22 16:56:00,35.7,29.2,30.27,ESE,106,7.0,9.0,77,0.00,,---,0.00,VWS V14.00,2013-02-22 16:56:00,
2013-02-22 17:01:00,35.7,29.2,30.27,ESE,103,10.0,10.0,77,0.00,,---,0.00,VWS V14.00,2013-02-22 17:01:00,
2013-02-22 17:06:00,35.7,29.2,30.26,ESE,108,7.0,12.0,77,0.00,,---,0.00,VWS V14.00,2013-02-22 17:06:00,
2013-02-22 17:11:00,35.7,29.5,30.26,ESE,105,8.0,11.0,78,0.00,,---,0.00,VWS V14.00,2013-02-22 17:11:00,
2013-02-22 17:16:00,35.8,29.9,30.27,East,96,14.0,17.0,79,0.00,,---,0.00,VWS V14.00,2013-02-22 17:16:00,
2013-02-22 17:22:00,35.7,29.5,30.27,East,98,12.0,14.0,78,0.00,,---,0.00,VWS V14.00,2013-02-22 17:22:00,
2013-02-22 17:27:00,35.7,29.2,30.27,ENE,78,7.0,10.0,77,0.00,,---,0.00,VWS V14.00,2013-02-22 17:27:00,
2013-02-22 17:32:00,35.8,29.3,30.27,East,86,9.0,15.0,77,0.00,,---,0.00,VWS V14.00,2013-02-22 17:32:00,
2013-02-22 17:37:00,35.7,28.9,30.27,East,79,10.0,14.0,76,0.00,,---,0.00,VWS V14.00,2013-02-22 17:37:00,
2013-02-22 17:42:00,35.7,28.6,30.27,East,88,10.0,13.0,75,0.00,,---,0.00,VWS V14.00,2013-02-22 17:42:00,
2013-02-22 17:47:00,35.7,28.2,30.27,ESE,108,7.0,9.0,74,0.00,,---,0.00,VWS V14.00,2013-02-22 17:47:00,
2013-02-22 17:52:00,35.7,28.2,30.27,ESE,123,9.0,9.0,74,0.00,,---,0.00,VWS V14.00,2013-02-22 17:52:00,
2013-02-22 17:57:00,35.7,28.9,30.27,East,98,12.0,13.0,76,0.00,,---,0.00,VWS V14.00,2013-02-22 17:57:00,
2013-02-22 18:02:00,35.7,29.5,30.27,East,98,11.0,14.0,78,0.00,,---,0.00,VWS V14.00,2013-02-22 18:02:00,
2013-02-22 18:07:00,35.6,30.0,30.27,East,98,12.0,12.0,80,0.00,,---,0.00,VWS V14.00,2013-02-22 18:07:00,
2013-02-22 18:12:00,35.6,30.0,30.27,East,89,6.0,6.0,80,0.00,,---,0.00,VWS V14.00,2013-02-22 18:12:00,
2013-02-22 18:39:00,35.6,29.7,30.28,East,86,6.0,11.0,79,0.00,,---,0.00,VWS V14.00,2013-02-22 18:39:00,
2013-02-22 18:44:00,35.6,29.4,30.28,East,96,7.0,8.0,78,0.00,,---,0.00,VWS V14.00,2013-02-22 18:44:00,
2013-02-22 18:49:00,35.7,29.5,30.28,East,88,6.0,9.0,78,0.00,,---,0.00,VWS V14.00,2013-02-22 18:49:00,
2013-02-22 18:54:00,35.7,29.5,30.28,ESE,110,13.0,13.0,78,0.00,,---,0.00,VWS V14.00,2013-02-22 18:54:00,
2013-02-22 18:59:00,35.7,29.8,30.28,East,90,11.0,13.0,79,0.00,,---,0.00,VWS V14.00,2013-02-22 18:59:00,
2013-02-22 19:04:00,35.8,29.9,30.28,East,90,12.0,18.0,79,0.00,,---,0.00,VWS V14.00,2013-02-22 19:04:00,
2013-02-22 19:09:00,35.8,29.9,30.28,ESE,117,11.0,13.0,79,0.00,,---,0.00,VWS V14.00,2013-02-22 19:09:00,
2013-02-22 19:14:00,35.7,30.1,30.29,East,93,9.0,10.0,80,0.00,,---,0.00,VWS V14.00,2013-02-22 19:14:00,
2013-02-22 19:19:00,35.7,30.1,30.29,ESE,111,11.0,12.0,80,0.00,,---,0.00,VWS V14.00,2013-02-22 19:19:00,
2013-02-22 19:24:00,35.7,30.1,30.29,SE,128,7.0,13.0,80,0.00,,---,0.00,VWS V14.00,2013-02-22 19:24:00,
2013-02-22 19:29:00,35.7,30.1,30.29,ESE,115,10.0,12.0,80,0.00,,---,0.00,VWS V14.00,2013-02-22 19:29:00,
2013-02-22 19:34:00,35.7,30.1,30.29,East,99,9.0,13.0,80,0.00,,---,0.00,VWS V14.00,2013-02-22 19:34:00,
2013-02-22 19:39:00,35.7,30.1,30.29,East,95,9.0,11.0,80,0.00,,---,0.00,VWS V14.00,2013-02-22 19:39:00,
2013-02-22 19:44:00,35.6,30.4,30.29,ESE,113,11.0,11.0,81,0.00,,---,0.00,VWS V14.00,2013-02-22 19:44:00,
2013-02-22 19:49:00,35.6,30.0,30.29,ESE,115,12.0,16.0,80,0.00,,---,0.00,VWS V14.00,2013-02-22 19:49:00,
2013-02-22 19:54:00,35.6,30.0,30.29,East,101,10.0,11.0,80,0.00,,---,0.00,VWS V14.00,2013-02-22 19:54:00,
2013-02-22 20:00:00,35.6,29.7,30.29,East,90,15.0,15.0,79,0.00,,---,0.00,VWS V14.00,2013-02-22 20:00:00,
2013-02-22 20:05:00,35.7,29.5,30.29,East,80,8.0,11.0,78,0.00,,---,0.00,VWS V14.00,2013-02-22 20:05:00,
2013-02-22 20:10:00,35.7,29.2,30.29,East,99,14.0,14.0,77,0.00,,---,0.00,VWS V14.00,2013-02-22 20:10:00,
2013-02-22 20:15:00,35.7,29.2,30.29,ENE,78,14.0,14.0,77,0.00,,---,0.00,VWS V14.00,2013-02-22 20:15:00,
2013-02-22 20:20:00,35.7,28.6,30.29,East,93,11.0,11.0,75,0.00,,---,0.00,VWS V14.00,2013-02-22 20:20:00,
2013-02-22 20:25:00,35.7,28.9,30.29,East,88,5.0,10.0,76,0.00,,---,0.00,VWS V14.00,2013-02-22 20:25:00,
2013-02-22 20:30:00,35.7,28.9,30.29,SE,136,12.0,12.0,76,0.00,,---,0.00,VWS V14.00,2013-02-22 20:30:00,
2013-02-22 20:35:00,35.8,29.3,30.29,East,84,9.0,9.0,77,0.00,,---,0.00,VWS V14.00,2013-02-22 20:35:00,
2013-02-22 20:40:00,35.8,29.6,30.29,East,97,13.0,13.0,78,0.00,,---,0.00,VWS V14.00,2013-02-22 20:40:00,
2013-02-22 20:45:00,35.7,29.5,30.29,East,100,12.0,13.0,78,0.00,,---,0.00,VWS V14.00,2013-02-22 20:45:00,
2013-02-22 20:50:00,35.7,29.5,30.29,East,96,14.0,15.0,78,0.00,,---,0.00,VWS V14.00,2013-02-22 20:50:00,
2013-02-22 20:55:00,35.7,29.5,30.29,ESE,106,7.0,14.0,78,0.00,,---,0.00,VWS V14.00,2013-02-22 20:55:00,
2013-02-22 21:00:00,35.8,29.9,30.29,East,90,12.0,15.0,79,0.00,,---,0.00,VWS V14.00,2013-02-22 21:00:00,
2013-02-22 21:05:00,35.9,30.0,30.29,ESE,122,14.0,18.0,79,0.00,,---,0.00,VWS V14.00,2013-02-22 21:05:00,
2013-02-22 21:10:00,35.8,29.0,30.29,East,88,10.0,12.0,76,0.00,,---,0.00,VWS V14.00,2013-02-22 21:10:00,
2013-02-22 21:15:00,35.8,29.0,30.29,East,84,9.0,11.0,76,0.00,,---,0.00,VWS V14.00,2013-02-22 21:15:00,
2013-02-22 21:20:00,35.8,28.7,30.29,ESE,105,11.0,11.0,75,0.00,,---,0.00,VWS V14.00,2013-02-22 21:20:00,
2013-02-22 21:25:00,35.8,28.3,30.29,East,89,8.0,9.0,74,0.00,,---,0.00,VWS V14.00,2013-02-22 21:25:00,
2013-02-22 21:30:00,35.8,28.7,30.29,ESE,107,6.0,10.0,75,0.00,,---,0.00,VWS V14.00,2013-02-22 21:30:00,
2013-02-22 21:36:00,35.9,29.1,30.29,East,96,8.0,10.0,76,0.00,,---,0.00,VWS V14.00,2013-02-22 21:36:00,
2013-02-22 21:41:00,36.0,29.2,30.29,East,95,12.0,13.0,76,0.00,,---,0.00,VWS V14.00,2013-02-22 21:41:00,
2013-02-22 21:46:00,36.0,29.5,30.29,East,82,12.0,12.0,77,0.00,,---,0.00,VWS V14.00,2013-02-22 21:46:00,
2013-02-22 21:51:00,36.0,29.5,30.29,SE,127,7.0,13.0,77,0.00,,---,0.00,VWS V14.00,2013-02-22 21:51:00,
2013-02-22 21:56:00,36.0,29.2,30.29,East,96,8.0,8.0,76,0.00,,---,0.00,VWS V14.00,2013-02-22 21:56:00,
2013-02-22 22:01:00,36.0,29.2,30.29,East,87,15.0,15.0,76,0.00,,---,0.00,VWS V14.00,2013-02-22 22:01:00,
2013-02-22 22:06:00,35.9,28.8,30.29,East,98,13.0,16.0,75,0.00,,---,0.00,VWS V14.00,2013-02-22 22:06:00,
2013-02-22 22:11:00,35.9,28.8,30.29,East,96,6.0,7.0,75,0.00,,---,0.00,VWS V14.00,2013-02-22 22:11:00,
2013-02-22 22:16:00,35.8,28.7,30.29,East,93,4.0,11.0,75,0.00,,---,0.00,VWS V14.00,2013-02-22 22:16:00,
2013-02-22 22:21:00,35.9,29.1,30.29,East,88,11.0,11.0,76,0.00,,---,0.00,VWS V14.00,2013-02-22 22:21:00,
2013-02-22 22:26:00,36.0,29.5,30.29,ESE,105,11.0,14.0,77,0.00,,---,0.00,VWS V14.00,2013-02-22 22:26:00,
2013-02-22 22:31:00,36.0,29.2,30.29,East,87,14.0,14.0,76,0.00,,---,0.00,VWS V14.00,2013-02-22 22:31:00,
2013-02-22 22:36:00,36.0,29.2,30.29,East,94,11.0,14.0,76,0.00,,---,0.00,VWS V14.00,2013-02-22 22:36:00,
2013-02-22 22:41:00,35.9,29.4,30.30,ENE,78,10.0,13.0,77,0.00,,---,0.00,VWS V14.00,2013-02-22 22:41:00,
2013-02-22 22:46:00,35.9,29.1,30.30,East,82,4.0,9.0,76,0.00,,---,0.00,VWS V14.00,2013-02-22 22:46:00,
2013-02-22 22:51:00,35.9,29.1,30.30,East,90,11.0,14.0,76,0.00,,---,0.00,VWS V14.00,2013-02-22 22:51:00,
2013-02-22 22:56:00,36.0,29.5,30.30,East,81,9.0,11.0,77,0.00,,---,0.00,VWS V14.00,2013-02-22 22:56:00,
2013-02-22 23:01:00,36.0,28.9,30.30,ENE,67,12.0,12.0,75,0.00,,---,0.00,VWS V14.00,2013-02-22 23:01:00,
2013-02-22 23:06:00,36.0,28.9,30.30,ENE,74,11.0,12.0,75,0.00,,---,0.00,VWS V14.00,2013-02-22 23:06:00,
2013-02-22 23:11:00,36.0,28.9,30.30,ENE,63,10.0,10.0,75,0.00,,---,0.00,VWS V14.00,2013-02-22 23:11:00,
2013-02-22 23:16:00,36.0,28.9,30.30,East,86,12.0,15.0,75,0.00,,---,0.00,VWS V14.00,2013-02-22 23:16:00,
2013-02-22 23:21:00,35.9,28.4,30.30,East,90,13.0,14.0,74,0.00,,---,0.00,VWS V14.00,2013-02-22 23:21:00,
2013-02-22 23:27:00,35.9,28.1,30.30,ENE,71,10.0,11.0,73,0.00,,---,0.00,VWS V14.00,2013-02-22 23:27:00,
2013-02-22 23:32:00,35.9,28.1,30.30,ENE,76,7.0,10.0,73,0.00,,---,0.00,VWS V14.00,2013-02-22 23:32:00,
2013-02-22 23:37:00,35.9,28.4,30.30,East,90,7.0,11.0,74,0.00,,---,0.00,VWS V14.00,2013-02-22 23:37:00,
2013-02-22 23:42:00,35.8,28.3,30.30,ESE,112,7.0,10.0,74,0.00,,---,0.00,VWS V14.00,2013-02-22 23:42:00,
2013-02-22 23:47:00,35.8,28.3,30.30,East,86,4.0,7.0,74,0.00,,---,0.00,VWS V14.00,2013-02-22 23:47:00,
2013-02-22 23:52:00,35.7,28.2,30.30,East,96,6.0,7.0,74,0.00,,---,0.00,VWS V14.00,2013-02-22 23:52:00,
2013-02-22 23:57:00,35.8,28.7,30.30,ESE,107,9.0,10.0,75,0.00,,---,0.00,VWS V14.00,2013-02-22 23:57:00,